sensor_id;sensor_type;location;lat;lon;timestamp;temperature;humidity
42037;DHT22;30340;52.004;5.908;2023-05-07T00:00:18;16.30;88.70
42037;DHT22;30340;52.004;5.908;2023-05-07T00:02:44;16.30;88.90
42037;DHT22;30340;52.004;5.908;2023-05-07T00:05:10;16.30;88.80
42037;DHT22;30340;52.004;5.908;2023-05-07T00:07:36;16.30;88.90
42037;DHT22;30340;52.004;5.908;2023-05-07T00:10:02;16.20;88.70
42037;DHT22;30340;52.004;5.908;2023-05-07T00:12:28;16.20;88.70
42037;DHT22;30340;52.004;5.908;2023-05-07T00:14:56;16.20;88.90
42037;DHT22;30340;52.004;5.908;2023-05-07T00:17:22;16.20;88.80
42037;DHT22;30340;52.004;5.908;2023-05-07T00:19:48;16.20;88.70
42037;DHT22;30340;52.004;5.908;2023-05-07T00:22:14;16.20;88.50
42037;DHT22;30340;52.004;5.908;2023-05-07T00:24:39;16.20;88.40
42037;DHT22;30340;52.004;5.908;2023-05-07T00:27:05;16.20;88.50
42037;DHT22;30340;52.004;5.908;2023-05-07T00:29:30;16.20;88.50
42037;DHT22;30340;52.004;5.908;2023-05-07T00:31:56;16.20;88.60
42037;DHT22;30340;52.004;5.908;2023-05-07T00:34:21;16.10;88.70
42037;DHT22;30340;52.004;5.908;2023-05-07T00:36:47;16.00;89.00
42037;DHT22;30340;52.004;5.908;2023-05-07T00:39:13;16.00;89.40
42037;DHT22;30340;52.004;5.908;2023-05-07T00:41:39;16.00;89.50
42037;DHT22;30340;52.004;5.908;2023-05-07T00:44:04;16.00;89.60
42037;DHT22;30340;52.004;5.908;2023-05-07T00:46:30;16.00;89.80
42037;DHT22;30340;52.004;5.908;2023-05-07T00:48:57;15.90;89.70
42037;DHT22;30340;52.004;5.908;2023-05-07T00:51:24;16.00;89.80
42037;DHT22;30340;52.004;5.908;2023-05-07T00:53:50;15.90;89.90
42037;DHT22;30340;52.004;5.908;2023-05-07T00:56:16;15.90;90.00
42037;DHT22;30340;52.004;5.908;2023-05-07T00:58:42;15.90;90.10
42037;DHT22;30340;52.004;5.908;2023-05-07T01:01:08;15.90;90.00
42037;DHT22;30340;52.004;5.908;2023-05-07T01:03:33;15.80;90.10
42037;DHT22;30340;52.004;5.908;2023-05-07T01:06:00;15.80;90.10
42037;DHT22;30340;52.004;5.908;2023-05-07T01:08:26;15.80;90.10
42037;DHT22;30340;52.004;5.908;2023-05-07T01:10:55;15.80;90.10
42037;DHT22;30340;52.004;5.908;2023-05-07T01:13:22;15.80;90.20
42037;DHT22;30340;52.004;5.908;2023-05-07T01:15:47;15.80;90.30
42037;DHT22;30340;52.004;5.908;2023-05-07T01:18:13;15.70;90.20
42037;DHT22;30340;52.004;5.908;2023-05-07T01:20:39;15.80;90.30
42037;DHT22;30340;52.004;5.908;2023-05-07T01:23:06;15.70;90.20
42037;DHT22;30340;52.004;5.908;2023-05-07T01:25:32;15.70;90.30
42037;DHT22;30340;52.004;5.908;2023-05-07T01:27:58;15.70;90.30
42037;DHT22;30340;52.004;5.908;2023-05-07T01:30:25;15.70;90.30
42037;DHT22;30340;52.004;5.908;2023-05-07T01:32:58;15.70;90.40
42037;DHT22;30340;52.004;5.908;2023-05-07T01:35:32;15.60;90.40
42037;DHT22;30340;52.004;5.908;2023-05-07T01:37:59;15.60;90.40
42037;DHT22;30340;52.004;5.908;2023-05-07T01:40:25;15.60;90.50
42037;DHT22;30340;52.004;5.908;2023-05-07T01:42:53;15.70;90.40
42037;DHT22;30340;52.004;5.908;2023-05-07T01:45:19;15.80;90.40
42037;DHT22;30340;52.004;5.908;2023-05-07T01:47:45;15.70;90.30
42037;DHT22;30340;52.004;5.908;2023-05-07T01:50:11;15.70;90.40
42037;DHT22;30340;52.004;5.908;2023-05-07T01:52:40;15.70;90.40
42037;DHT22;30340;52.004;5.908;2023-05-07T01:55:06;15.70;90.40
42037;DHT22;30340;52.004;5.908;2023-05-07T01:57:32;15.70;90.30
42037;DHT22;30340;52.004;5.908;2023-05-07T01:59:57;15.70;90.20
42037;DHT22;30340;52.004;5.908;2023-05-07T02:02:23;15.70;90.10
42037;DHT22;30340;52.004;5.908;2023-05-07T02:04:49;15.70;90.00
42037;DHT22;30340;52.004;5.908;2023-05-07T02:07:14;15.80;89.80
42037;DHT22;30340;52.004;5.908;2023-05-07T02:09:40;15.80;89.40
42037;DHT22;30340;52.004;5.908;2023-05-07T02:12:05;15.80;89.20
42037;DHT22;30340;52.004;5.908;2023-05-07T02:14:31;15.80;88.90
42037;DHT22;30340;52.004;5.908;2023-05-07T02:16:56;15.80;88.60
42037;DHT22;30340;52.004;5.908;2023-05-07T02:19:22;15.80;88.40
42037;DHT22;30340;52.004;5.908;2023-05-07T02:21:48;15.80;88.80
42037;DHT22;30340;52.004;5.908;2023-05-07T02:24:13;15.80;88.10
42037;DHT22;30340;52.004;5.908;2023-05-07T02:26:40;15.90;88.00
42037;DHT22;30340;52.004;5.908;2023-05-07T02:29:06;15.80;88.00
42037;DHT22;30340;52.004;5.908;2023-05-07T02:31:32;15.80;88.20
42037;DHT22;30340;52.004;5.908;2023-05-07T02:33:59;15.80;88.10
42037;DHT22;30340;52.004;5.908;2023-05-07T02:36:25;15.80;88.20
42037;DHT22;30340;52.004;5.908;2023-05-07T02:38:51;15.80;88.20
42037;DHT22;30340;52.004;5.908;2023-05-07T02:41:17;15.80;88.20
42037;DHT22;30340;52.004;5.908;2023-05-07T02:43:43;15.80;88.30
42037;DHT22;30340;52.004;5.908;2023-05-07T02:46:09;15.70;88.40
42037;DHT22;30340;52.004;5.908;2023-05-07T02:48:34;15.70;88.40
42037;DHT22;30340;52.004;5.908;2023-05-07T02:51:00;15.70;88.40
42037;DHT22;30340;52.004;5.908;2023-05-07T02:53:26;15.70;88.30
42037;DHT22;30340;52.004;5.908;2023-05-07T02:55:53;15.70;88.20
42037;DHT22;30340;52.004;5.908;2023-05-07T02:58:19;15.80;88.20
42037;DHT22;30340;52.004;5.908;2023-05-07T03:00:44;15.80;87.90
42037;DHT22;30340;52.004;5.908;2023-05-07T03:03:10;15.80;87.90
42037;DHT22;30340;52.004;5.908;2023-05-07T03:05:36;15.80;87.70
42037;DHT22;30340;52.004;5.908;2023-05-07T03:08:01;15.80;87.70
42037;DHT22;30340;52.004;5.908;2023-05-07T03:10:28;15.80;87.80
42037;DHT22;30340;52.004;5.908;2023-05-07T03:12:53;15.80;87.90
42037;DHT22;30340;52.004;5.908;2023-05-07T03:15:19;15.70;88.10
42037;DHT22;30340;52.004;5.908;2023-05-07T03:17:44;15.70;88.50
42037;DHT22;30340;52.004;5.908;2023-05-07T03:20:10;15.60;88.80
42037;DHT22;30340;52.004;5.908;2023-05-07T03:22:36;15.60;89.10
42037;DHT22;30340;52.004;5.908;2023-05-07T03:25:01;15.60;89.20
42037;DHT22;30340;52.004;5.908;2023-05-07T03:27:27;15.60;89.50
42037;DHT22;30340;52.004;5.908;2023-05-07T03:29:52;15.50;89.50
42037;DHT22;30340;52.004;5.908;2023-05-07T03:32:18;15.50;89.60
42037;DHT22;30340;52.004;5.908;2023-05-07T03:34:43;15.50;89.70
42037;DHT22;30340;52.004;5.908;2023-05-07T03:37:09;15.50;89.90
42037;DHT22;30340;52.004;5.908;2023-05-07T03:39:35;15.50;90.00
42037;DHT22;30340;52.004;5.908;2023-05-07T03:42:00;15.50;90.10
42037;DHT22;30340;52.004;5.908;2023-05-07T03:44:26;15.40;90.20
42037;DHT22;30340;52.004;5.908;2023-05-07T03:46:51;15.40;90.40
42037;DHT22;30340;52.004;5.908;2023-05-07T03:49:17;15.30;90.60
42037;DHT22;30340;52.004;5.908;2023-05-07T03:51:42;15.30;90.80
42037;DHT22;30340;52.004;5.908;2023-05-07T03:54:08;15.30;90.90
42037;DHT22;30340;52.004;5.908;2023-05-07T03:56:34;15.30;90.90
42037;DHT22;30340;52.004;5.908;2023-05-07T03:59:00;15.30;91.20
42037;DHT22;30340;52.004;5.908;2023-05-07T04:01:26;15.20;91.40
42037;DHT22;30340;52.004;5.908;2023-05-07T04:03:52;15.20;91.40
42037;DHT22;30340;52.004;5.908;2023-05-07T04:06:17;15.20;91.60
42037;DHT22;30340;52.004;5.908;2023-05-07T04:08:43;15.20;91.60
42037;DHT22;30340;52.004;5.908;2023-05-07T04:11:09;15.20;91.90
42037;DHT22;30340;52.004;5.908;2023-05-07T04:13:34;15.20;91.60
42037;DHT22;30340;52.004;5.908;2023-05-07T04:16:02;15.20;91.80
42037;DHT22;30340;52.004;5.908;2023-05-07T04:18:28;15.20;92.00
42037;DHT22;30340;52.004;5.908;2023-05-07T04:20:54;15.20;92.00
42037;DHT22;30340;52.004;5.908;2023-05-07T04:23:19;15.20;92.10
42037;DHT22;30340;52.004;5.908;2023-05-07T04:25:45;15.20;92.10
42037;DHT22;30340;52.004;5.908;2023-05-07T04:28:11;15.20;92.20
42037;DHT22;30340;52.004;5.908;2023-05-07T04:30:37;15.20;92.20
42037;DHT22;30340;52.004;5.908;2023-05-07T04:33:02;15.20;92.30
42037;DHT22;30340;52.004;5.908;2023-05-07T04:35:28;15.20;92.40
42037;DHT22;30340;52.004;5.908;2023-05-07T04:37:53;15.20;92.50
42037;DHT22;30340;52.004;5.908;2023-05-07T04:40:19;15.20;92.60
42037;DHT22;30340;52.004;5.908;2023-05-07T04:42:45;15.20;92.70
42037;DHT22;30340;52.004;5.908;2023-05-07T04:45:10;15.20;92.70
42037;DHT22;30340;52.004;5.908;2023-05-07T04:47:37;15.10;92.80
42037;DHT22;30340;52.004;5.908;2023-05-07T04:50:03;15.10;92.90
42037;DHT22;30340;52.004;5.908;2023-05-07T04:52:29;15.20;92.90
42037;DHT22;30340;52.004;5.908;2023-05-07T04:54:55;15.10;93.00
42037;DHT22;30340;52.004;5.908;2023-05-07T04:57:21;15.10;93.10
42037;DHT22;30340;52.004;5.908;2023-05-07T04:59:46;15.10;93.20
42037;DHT22;30340;52.004;5.908;2023-05-07T05:02:12;15.10;93.40
42037;DHT22;30340;52.004;5.908;2023-05-07T05:04:37;15.10;93.40
42037;DHT22;30340;52.004;5.908;2023-05-07T05:07:03;15.10;93.40
42037;DHT22;30340;52.004;5.908;2023-05-07T05:09:29;15.20;93.50
42037;DHT22;30340;52.004;5.908;2023-05-07T05:11:55;15.10;93.60
42037;DHT22;30340;52.004;5.908;2023-05-07T05:14:21;15.00;93.70
42037;DHT22;30340;52.004;5.908;2023-05-07T05:16:46;15.10;93.90
42037;DHT22;30340;52.004;5.908;2023-05-07T05:19:12;15.00;94.00
42037;DHT22;30340;52.004;5.908;2023-05-07T05:21:37;15.00;94.10
42037;DHT22;30340;52.004;5.908;2023-05-07T05:24:03;15.10;94.00
42037;DHT22;30340;52.004;5.908;2023-05-07T05:26:29;15.10;94.00
42037;DHT22;30340;52.004;5.908;2023-05-07T05:28:54;15.10;94.00
42037;DHT22;30340;52.004;5.908;2023-05-07T05:31:20;15.10;94.40
42037;DHT22;30340;52.004;5.908;2023-05-07T05:33:46;15.10;94.00
42037;DHT22;30340;52.004;5.908;2023-05-07T05:36:12;15.10;94.00
42037;DHT22;30340;52.004;5.908;2023-05-07T05:38:39;15.10;94.00
42037;DHT22;30340;52.004;5.908;2023-05-07T05:41:05;15.10;94.00
42037;DHT22;30340;52.004;5.908;2023-05-07T05:43:30;15.20;94.00
42037;DHT22;30340;52.004;5.908;2023-05-07T05:45:56;15.20;94.00
42037;DHT22;30340;52.004;5.908;2023-05-07T05:48:22;15.20;93.90
42037;DHT22;30340;52.004;5.908;2023-05-07T05:50:48;15.20;93.80
42037;DHT22;30340;52.004;5.908;2023-05-07T05:53:13;15.30;93.80
42037;DHT22;30340;52.004;5.908;2023-05-07T05:55:39;15.30;93.70
42037;DHT22;30340;52.004;5.908;2023-05-07T05:58:04;15.30;93.70
42037;DHT22;30340;52.004;5.908;2023-05-07T06:00:31;15.30;93.70
42037;DHT22;30340;52.004;5.908;2023-05-07T06:02:57;15.30;93.70
42037;DHT22;30340;52.004;5.908;2023-05-07T06:05:22;15.40;93.70
42037;DHT22;30340;52.004;5.908;2023-05-07T06:07:48;15.40;93.60
42037;DHT22;30340;52.004;5.908;2023-05-07T06:10:14;15.30;93.60
42037;DHT22;30340;52.004;5.908;2023-05-07T06:12:39;15.40;93.70
42037;DHT22;30340;52.004;5.908;2023-05-07T06:15:05;15.50;93.60
42037;DHT22;30340;52.004;5.908;2023-05-07T06:17:31;15.50;93.50
42037;DHT22;30340;52.004;5.908;2023-05-07T06:19:57;15.40;93.50
42037;DHT22;30340;52.004;5.908;2023-05-07T06:22:22;15.40;93.70
42037;DHT22;30340;52.004;5.908;2023-05-07T06:24:48;15.40;93.50
42037;DHT22;30340;52.004;5.908;2023-05-07T06:27:13;15.40;93.60
42037;DHT22;30340;52.004;5.908;2023-05-07T06:29:39;15.40;93.60
42037;DHT22;30340;52.004;5.908;2023-05-07T06:32:09;15.40;93.70
42037;DHT22;30340;52.004;5.908;2023-05-07T06:34:35;15.40;93.80
42037;DHT22;30340;52.004;5.908;2023-05-07T06:37:00;15.40;93.90
42037;DHT22;30340;52.004;5.908;2023-05-07T06:39:26;15.50;93.80
42037;DHT22;30340;52.004;5.908;2023-05-07T06:41:52;15.50;93.80
42037;DHT22;30340;52.004;5.908;2023-05-07T06:44:17;15.60;93.80
42037;DHT22;30340;52.004;5.908;2023-05-07T06:46:43;15.60;93.80
42037;DHT22;30340;52.004;5.908;2023-05-07T06:49:08;15.70;93.70
42037;DHT22;30340;52.004;5.908;2023-05-07T06:51:34;15.80;93.60
42037;DHT22;30340;52.004;5.908;2023-05-07T06:54:00;15.70;93.50
42037;DHT22;30340;52.004;5.908;2023-05-07T06:56:25;15.80;93.50
42037;DHT22;30340;52.004;5.908;2023-05-07T06:58:51;15.70;93.50
42037;DHT22;30340;52.004;5.908;2023-05-07T07:01:16;15.70;93.50
42037;DHT22;30340;52.004;5.908;2023-05-07T07:03:42;15.80;93.50
42037;DHT22;30340;52.004;5.908;2023-05-07T07:06:07;15.90;93.50
42037;DHT22;30340;52.004;5.908;2023-05-07T07:08:33;16.00;93.30
42037;DHT22;30340;52.004;5.908;2023-05-07T07:10:59;16.00;93.10
42037;DHT22;30340;52.004;5.908;2023-05-07T07:13:25;16.00;93.20
42037;DHT22;30340;52.004;5.908;2023-05-07T07:15:51;16.10;93.10
42037;DHT22;30340;52.004;5.908;2023-05-07T07:18:18;16.20;93.00
42037;DHT22;30340;52.004;5.908;2023-05-07T07:20:43;16.30;92.60
42037;DHT22;30340;52.004;5.908;2023-05-07T07:23:09;16.40;92.50
42037;DHT22;30340;52.004;5.908;2023-05-07T07:25:35;16.50;92.20
42037;DHT22;30340;52.004;5.908;2023-05-07T07:28:01;16.60;92.10
42037;DHT22;30340;52.004;5.908;2023-05-07T07:30:26;16.50;91.90
42037;DHT22;30340;52.004;5.908;2023-05-07T07:32:52;16.60;91.80
42037;DHT22;30340;52.004;5.908;2023-05-07T07:35:18;16.70;91.70
42037;DHT22;30340;52.004;5.908;2023-05-07T07:37:43;16.60;91.40
42037;DHT22;30340;52.004;5.908;2023-05-07T07:40:09;16.70;91.60
42037;DHT22;30340;52.004;5.908;2023-05-07T07:42:35;16.70;91.30
42037;DHT22;30340;52.004;5.908;2023-05-07T07:45:01;16.70;91.20
42037;DHT22;30340;52.004;5.908;2023-05-07T07:47:26;16.70;91.30
42037;DHT22;30340;52.004;5.908;2023-05-07T07:49:52;16.80;91.20
42037;DHT22;30340;52.004;5.908;2023-05-07T07:52:18;16.90;91.10
42037;DHT22;30340;52.004;5.908;2023-05-07T07:54:44;17.00;91.00
42037;DHT22;30340;52.004;5.908;2023-05-07T07:57:10;17.00;90.90
42037;DHT22;30340;52.004;5.908;2023-05-07T07:59:35;17.10;90.70
42037;DHT22;30340;52.004;5.908;2023-05-07T08:02:01;17.10;90.50
42037;DHT22;30340;52.004;5.908;2023-05-07T08:04:26;17.10;90.50
42037;DHT22;30340;52.004;5.908;2023-05-07T08:06:52;17.10;90.50
42037;DHT22;30340;52.004;5.908;2023-05-07T08:09:19;17.10;90.50
42037;DHT22;30340;52.004;5.908;2023-05-07T08:11:45;17.10;90.50
42037;DHT22;30340;52.004;5.908;2023-05-07T08:14:11;17.20;90.40
42037;DHT22;30340;52.004;5.908;2023-05-07T08:16:37;17.10;90.20
42037;DHT22;30340;52.004;5.908;2023-05-07T08:19:02;17.10;90.20
42037;DHT22;30340;52.004;5.908;2023-05-07T08:21:28;17.20;90.20
42037;DHT22;30340;52.004;5.908;2023-05-07T08:23:54;17.20;89.80
42037;DHT22;30340;52.004;5.908;2023-05-07T08:26:19;17.30;89.50
42037;DHT22;30340;52.004;5.908;2023-05-07T08:28:45;17.30;89.40
42037;DHT22;30340;52.004;5.908;2023-05-07T08:31:11;17.30;89.00
42037;DHT22;30340;52.004;5.908;2023-05-07T08:33:37;17.20;88.80
42037;DHT22;30340;52.004;5.908;2023-05-07T08:36:04;17.30;88.90
42037;DHT22;30340;52.004;5.908;2023-05-07T08:38:29;17.30;88.80
42037;DHT22;30340;52.004;5.908;2023-05-07T08:40:55;17.40;88.70
42037;DHT22;30340;52.004;5.908;2023-05-07T08:43:21;17.50;88.40
42037;DHT22;30340;52.004;5.908;2023-05-07T08:45:53;17.50;88.20
42037;DHT22;30340;52.004;5.908;2023-05-07T08:48:21;17.60;88.20
42037;DHT22;30340;52.004;5.908;2023-05-07T08:50:47;17.60;87.80
42037;DHT22;30340;52.004;5.908;2023-05-07T08:53:13;17.70;87.70
42037;DHT22;30340;52.004;5.908;2023-05-07T08:55:40;17.80;87.50
42037;DHT22;30340;52.004;5.908;2023-05-07T08:58:06;17.80;86.80
42037;DHT22;30340;52.004;5.908;2023-05-07T09:00:33;17.80;86.60
42037;DHT22;30340;52.004;5.908;2023-05-07T09:03:01;17.90;86.60
42037;DHT22;30340;52.004;5.908;2023-05-07T09:05:26;18.00;86.30
42037;DHT22;30340;52.004;5.908;2023-05-07T09:07:52;18.10;86.00
42037;DHT22;30340;52.004;5.908;2023-05-07T09:10:18;18.10;85.10
42037;DHT22;30340;52.004;5.908;2023-05-07T09:12:43;18.10;85.00
42037;DHT22;30340;52.004;5.908;2023-05-07T09:15:11;18.10;84.50
42037;DHT22;30340;52.004;5.908;2023-05-07T09:17:37;18.10;84.30
42037;DHT22;30340;52.004;5.908;2023-05-07T09:20:04;18.20;83.90
42037;DHT22;30340;52.004;5.908;2023-05-07T09:22:35;18.20;84.10
42037;DHT22;30340;52.004;5.908;2023-05-07T09:25:01;18.30;84.20
42037;DHT22;30340;52.004;5.908;2023-05-07T09:27:27;18.50;84.10
42037;DHT22;30340;52.004;5.908;2023-05-07T09:29:52;18.50;84.20
42037;DHT22;30340;52.004;5.908;2023-05-07T09:32:18;18.60;84.40
42037;DHT22;30340;52.004;5.908;2023-05-07T09:34:44;18.90;84.50
42037;DHT22;30340;52.004;5.908;2023-05-07T09:37:12;19.00;83.90
42037;DHT22;30340;52.004;5.908;2023-05-07T09:39:45;19.20;83.40
42037;DHT22;30340;52.004;5.908;2023-05-07T09:42:12;19.30;82.90
42037;DHT22;30340;52.004;5.908;2023-05-07T09:44:38;19.30;82.40
42037;DHT22;30340;52.004;5.908;2023-05-07T09:47:07;19.40;82.00
42037;DHT22;30340;52.004;5.908;2023-05-07T09:49:35;19.60;81.70
42037;DHT22;30340;52.004;5.908;2023-05-07T09:52:03;19.80;81.20
42037;DHT22;30340;52.004;5.908;2023-05-07T09:54:32;19.90;80.40
42037;DHT22;30340;52.004;5.908;2023-05-07T09:57:00;19.90;79.40
42037;DHT22;30340;52.004;5.908;2023-05-07T09:59:28;19.80;78.90
42037;DHT22;30340;52.004;5.908;2023-05-07T10:01:57;19.90;78.70
42037;DHT22;30340;52.004;5.908;2023-05-07T10:04:25;19.90;78.10
42037;DHT22;30340;52.004;5.908;2023-05-07T10:06:52;19.90;77.20
42037;DHT22;30340;52.004;5.908;2023-05-07T10:09:19;19.90;77.30
42037;DHT22;30340;52.004;5.908;2023-05-07T10:11:45;20.00;77.70
42037;DHT22;30340;52.004;5.908;2023-05-07T10:14:11;20.20;77.80
42037;DHT22;30340;52.004;5.908;2023-05-07T10:16:37;20.30;76.70
42037;DHT22;30340;52.004;5.908;2023-05-07T10:19:07;20.40;76.60
42037;DHT22;30340;52.004;5.908;2023-05-07T10:21:36;20.40;74.80
42037;DHT22;30340;52.004;5.908;2023-05-07T10:24:08;20.50;75.30
42037;DHT22;30340;52.004;5.908;2023-05-07T10:26:42;20.40;73.80
42037;DHT22;30340;52.004;5.908;2023-05-07T10:29:15;20.40;74.30
42037;DHT22;30340;52.004;5.908;2023-05-07T10:31:56;20.50;74.40
42037;DHT22;30340;52.004;5.908;2023-05-07T10:34:45;20.70;74.60
42037;DHT22;30340;52.004;5.908;2023-05-07T10:37:12;20.90;74.10
42037;DHT22;30340;52.004;5.908;2023-05-07T10:39:38;21.10;72.90
42037;DHT22;30340;52.004;5.908;2023-05-07T10:42:08;20.90;72.30
42037;DHT22;30340;52.004;5.908;2023-05-07T10:44:34;21.10;72.10
42037;DHT22;30340;52.004;5.908;2023-05-07T10:50:20;21.40;71.40
42037;DHT22;30340;52.004;5.908;2023-05-07T10:52:22;21.40;71.20
42037;DHT22;30340;52.004;5.908;2023-05-07T10:57:42;21.60;70.60
42037;DHT22;30340;52.004;5.908;2023-05-07T11:05:30;22.20;68.90
42037;DHT22;30340;52.004;5.908;2023-05-07T11:07:56;22.10;67.20
42037;DHT22;30340;52.004;5.908;2023-05-07T11:10:22;22.10;67.60
42037;DHT22;30340;52.004;5.908;2023-05-07T11:12:51;22.20;67.40
42037;DHT22;30340;52.004;5.908;2023-05-07T11:15:34;22.20;67.60
42037;DHT22;30340;52.004;5.908;2023-05-07T11:18:00;22.30;66.30
42037;DHT22;30340;52.004;5.908;2023-05-07T11:26:04;22.30;66.20
42037;DHT22;30340;52.004;5.908;2023-05-07T11:28:31;22.30;66.00
42037;DHT22;30340;52.004;5.908;2023-05-07T11:30:57;22.50;66.50
42037;DHT22;30340;52.004;5.908;2023-05-07T11:33:23;22.50;65.70
42037;DHT22;30340;52.004;5.908;2023-05-07T11:35:55;22.50;66.00
42037;DHT22;30340;52.004;5.908;2023-05-07T11:38:21;22.60;65.70
42037;DHT22;30340;52.004;5.908;2023-05-07T11:40:50;22.60;65.30
42037;DHT22;30340;52.004;5.908;2023-05-07T11:43:16;22.70;65.80
42037;DHT22;30340;52.004;5.908;2023-05-07T11:45:42;22.80;65.60
42037;DHT22;30340;52.004;5.908;2023-05-07T11:48:07;22.80;65.40
42037;DHT22;30340;52.004;5.908;2023-05-07T11:50:33;22.70;65.00
42037;DHT22;30340;52.004;5.908;2023-05-07T11:52:58;22.70;64.90
42037;DHT22;30340;52.004;5.908;2023-05-07T11:55:24;22.60;64.80
42037;DHT22;30340;52.004;5.908;2023-05-07T11:57:51;22.80;65.20
42037;DHT22;30340;52.004;5.908;2023-05-07T12:00:17;22.90;65.00
42037;DHT22;30340;52.004;5.908;2023-05-07T12:02:45;22.80;64.00
42037;DHT22;30340;52.004;5.908;2023-05-07T12:05:10;22.70;64.30
42037;DHT22;30340;52.004;5.908;2023-05-07T12:07:36;22.60;64.30
42037;DHT22;30340;52.004;5.908;2023-05-07T12:10:06;22.60;64.70
42037;DHT22;30340;52.004;5.908;2023-05-07T12:12:40;22.60;64.80
42037;DHT22;30340;52.004;5.908;2023-05-07T12:15:07;22.70;64.60
42037;DHT22;30340;52.004;5.908;2023-05-07T12:17:33;22.60;63.80
42037;DHT22;30340;52.004;5.908;2023-05-07T12:19:59;22.50;64.40
42037;DHT22;30340;52.004;5.908;2023-05-07T12:22:25;22.60;64.60
42037;DHT22;30340;52.004;5.908;2023-05-07T12:24:57;22.70;64.50
42037;DHT22;30340;52.004;5.908;2023-05-07T12:27:23;22.90;64.20
42037;DHT22;30340;52.004;5.908;2023-05-07T12:29:50;23.00;63.90
42037;DHT22;30340;52.004;5.908;2023-05-07T12:32:25;23.20;64.00
42037;DHT22;30340;52.004;5.908;2023-05-07T12:34:51;23.30;63.30
42037;DHT22;30340;52.004;5.908;2023-05-07T12:37:17;23.30;62.70
42037;DHT22;30340;52.004;5.908;2023-05-07T12:39:48;23.30;63.00
42037;DHT22;30340;52.004;5.908;2023-05-07T12:42:20;23.40;62.90
42037;DHT22;30340;52.004;5.908;2023-05-07T12:44:51;23.20;62.00
42037;DHT22;30340;52.004;5.908;2023-05-07T12:47:17;22.90;62.30
42037;DHT22;30340;52.004;5.908;2023-05-07T12:49:43;23.00;63.10
42037;DHT22;30340;52.004;5.908;2023-05-07T12:52:11;23.00;63.00
42037;DHT22;30340;52.004;5.908;2023-05-07T12:54:37;23.00;63.00
42037;DHT22;30340;52.004;5.908;2023-05-07T12:57:08;23.10;63.30
42037;DHT22;30340;52.004;5.908;2023-05-07T12:59:35;23.20;63.00
42037;DHT22;30340;52.004;5.908;2023-05-07T13:02:01;23.20;63.20
42037;DHT22;30340;52.004;5.908;2023-05-07T13:04:27;23.00;62.80
42037;DHT22;30340;52.004;5.908;2023-05-07T13:06:52;22.90;63.30
42037;DHT22;30340;52.004;5.908;2023-05-07T13:09:18;23.00;63.50
42037;DHT22;30340;52.004;5.908;2023-05-07T13:11:43;23.00;63.50
42037;DHT22;30340;52.004;5.908;2023-05-07T13:14:09;23.10;63.40
42037;DHT22;30340;52.004;5.908;2023-05-07T13:16:34;23.10;63.60
42037;DHT22;30340;52.004;5.908;2023-05-07T13:19:00;23.30;63.80
42037;DHT22;30340;52.004;5.908;2023-05-07T13:21:26;23.20;63.70
42037;DHT22;30340;52.004;5.908;2023-05-07T13:23:52;23.30;63.50
42037;DHT22;30340;52.004;5.908;2023-05-07T13:26:18;22.90;62.80
42037;DHT22;30340;52.004;5.908;2023-05-07T13:28:43;22.60;63.40
42037;DHT22;30340;52.004;5.908;2023-05-07T13:31:09;22.60;63.90
42037;DHT22;30340;52.004;5.908;2023-05-07T13:33:35;22.70;64.00
42037;DHT22;30340;52.004;5.908;2023-05-07T13:36:01;22.70;63.70
42037;DHT22;30340;52.004;5.908;2023-05-07T13:38:29;22.60;64.00
42037;DHT22;30340;52.004;5.908;2023-05-07T13:40:54;22.60;64.10
42037;DHT22;30340;52.004;5.908;2023-05-07T13:43:20;22.60;64.10
42037;DHT22;30340;52.004;5.908;2023-05-07T13:45:45;22.50;63.80
42037;DHT22;30340;52.004;5.908;2023-05-07T13:48:11;22.40;64.20
42037;DHT22;30340;52.004;5.908;2023-05-07T13:50:37;22.40;64.20
42037;DHT22;30340;52.004;5.908;2023-05-07T13:53:02;22.40;64.50
42037;DHT22;30340;52.004;5.908;2023-05-07T13:55:28;22.40;64.30
42037;DHT22;30340;52.004;5.908;2023-05-07T13:57:55;22.40;64.50
42037;DHT22;30340;52.004;5.908;2023-05-07T14:00:22;22.40;65.00
42037;DHT22;30340;52.004;5.908;2023-05-07T14:02:48;22.40;65.20
42037;DHT22;30340;52.004;5.908;2023-05-07T14:05:13;22.70;64.80
42037;DHT22;30340;52.004;5.908;2023-05-07T14:07:39;22.60;64.00
42037;DHT22;30340;52.004;5.908;2023-05-07T14:10:05;22.60;63.70
42037;DHT22;30340;52.004;5.908;2023-05-07T14:12:32;22.50;64.10
42037;DHT22;30340;52.004;5.908;2023-05-07T14:14:58;22.50;63.20
42037;DHT22;30340;52.004;5.908;2023-05-07T14:17:23;22.70;63.40
42037;DHT22;30340;52.004;5.908;2023-05-07T14:19:51;22.90;62.70
42037;DHT22;30340;52.004;5.908;2023-05-07T14:22:20;23.10;62.50
42037;DHT22;30340;52.004;5.908;2023-05-07T14:24:46;23.40;61.90
42037;DHT22;30340;52.004;5.908;2023-05-07T14:27:12;23.40;60.80
42037;DHT22;30340;52.004;5.908;2023-05-07T14:29:37;23.30;61.20
42037;DHT22;30340;52.004;5.908;2023-05-07T14:32:04;23.20;60.60
42037;DHT22;30340;52.004;5.908;2023-05-07T14:34:31;23.00;60.70
42037;DHT22;30340;52.004;5.908;2023-05-07T14:36:57;22.90;60.90
42037;DHT22;30340;52.004;5.908;2023-05-07T14:39:23;22.80;61.40
42037;DHT22;30340;52.004;5.908;2023-05-07T14:41:49;22.80;61.70
42037;DHT22;30340;52.004;5.908;2023-05-07T14:44:15;22.70;61.80
42037;DHT22;30340;52.004;5.908;2023-05-07T14:46:40;22.70;62.50
42037;DHT22;30340;52.004;5.908;2023-05-07T14:49:06;22.50;62.90
42037;DHT22;30340;52.004;5.908;2023-05-07T14:51:31;22.50;63.30
42037;DHT22;30340;52.004;5.908;2023-05-07T14:53:58;22.50;63.70
42037;DHT22;30340;52.004;5.908;2023-05-07T14:56:24;22.60;64.60
42037;DHT22;30340;52.004;5.908;2023-05-07T14:58:49;22.50;65.40
42037;DHT22;30340;52.004;5.908;2023-05-07T15:01:15;22.30;65.60
42037;DHT22;30340;52.004;5.908;2023-05-07T15:03:41;22.20;65.50
42037;DHT22;30340;52.004;5.908;2023-05-07T15:06:06;22.20;65.30
42037;DHT22;30340;52.004;5.908;2023-05-07T15:08:32;22.20;65.30
42037;DHT22;30340;52.004;5.908;2023-05-07T15:10:58;22.10;65.40
42037;DHT22;30340;52.004;5.908;2023-05-07T15:13:23;22.10;64.60
42037;DHT22;30340;52.004;5.908;2023-05-07T15:15:49;22.00;64.40
42037;DHT22;30340;52.004;5.908;2023-05-07T15:18:15;21.80;65.70
42037;DHT22;30340;52.004;5.908;2023-05-07T15:20:41;21.70;65.50
42037;DHT22;30340;52.004;5.908;2023-05-07T15:23:08;21.80;65.80
42037;DHT22;30340;52.004;5.908;2023-05-07T15:25:39;21.70;65.10
42037;DHT22;30340;52.004;5.908;2023-05-07T15:28:05;21.50;64.90
42037;DHT22;30340;52.004;5.908;2023-05-07T15:30:31;21.40;65.20
42037;DHT22;30340;52.004;5.908;2023-05-07T15:32:56;21.40;65.60
42037;DHT22;30340;52.004;5.908;2023-05-07T15:35:22;21.40;65.40
42037;DHT22;30340;52.004;5.908;2023-05-07T15:37:48;21.50;65.60
42037;DHT22;30340;52.004;5.908;2023-05-07T15:40:17;21.50;65.80